createdAt,value
2018-08-21T00:00:31.741Z,0.00
2018-08-21T00:01:31.768Z,0.00
2018-08-21T00:02:31.793Z,0.00
2018-08-21T00:03:31.819Z,0.00
2018-08-21T00:04:31.833Z,0.00
2018-08-21T00:05:31.858Z,0.00
2018-08-21T00:06:31.884Z,0.00
2018-08-21T00:07:31.922Z,0.00
2018-08-21T00:08:31.924Z,0.00
2018-08-21T00:09:31.949Z,0.00
2018-08-21T00:10:31.975Z,0.00
2018-08-21T00:11:32.001Z,0.00
2018-08-21T00:12:32.017Z,0.00
2018-08-21T00:13:32.040Z,0.00
2018-08-21T00:14:32.080Z,0.00
2018-08-21T00:15:32.093Z,0.00
2018-08-21T00:16:32.117Z,0.00
2018-08-21T00:17:32.132Z,0.00
2018-08-21T00:18:32.158Z,0.00
2018-08-21T00:19:32.183Z,0.00
2018-08-21T00:20:32.210Z,0.00
2018-08-21T00:21:32.223Z,0.00
2018-08-21T00:22:32.249Z,0.00
2018-08-21T00:23:32.274Z,0.00
2018-08-21T00:24:32.300Z,0.00
2018-08-21T00:25:32.315Z,0.00
2018-08-21T00:26:32.340Z,0.00
2018-08-21T00:27:32.371Z,0.00
2018-08-21T00:28:32.400Z,0.00
2018-08-21T00:29:32.405Z,0.00
2018-08-21T00:30:32.431Z,0.00
2018-08-21T00:31:32.457Z,0.00
2018-08-21T00:32:32.482Z,0.00
2018-08-21T00:33:32.497Z,0.00
2018-08-21T00:34:32.523Z,0.00
2018-08-21T00:35:32.548Z,0.00
2018-08-21T00:36:32.575Z,0.00
2018-08-21T00:37:32.608Z,0.00
2018-08-21T00:38:32.615Z,0.00
2018-08-21T00:39:32.642Z,0.00
2018-08-21T00:40:32.665Z,0.00
2018-08-21T00:41:32.692Z,0.00
2018-08-21T00:42:32.706Z,0.00
2018-08-21T00:43:32.735Z,0.00
2018-08-21T00:44:32.757Z,0.00
2018-08-21T00:45:32.784Z,0.00
2018-08-21T00:46:32.796Z,0.00
2018-08-21T00:47:32.824Z,0.00
2018-08-21T00:48:32.849Z,0.00
2018-08-21T00:49:32.874Z,0.00
2018-08-21T00:50:32.889Z,0.00
2018-08-21T00:51:32.914Z,0.00
2018-08-21T00:52:32.940Z,0.00
2018-08-21T00:53:32.965Z,0.00
2018-08-21T00:54:32.980Z,0.00
2018-08-21T00:55:33.008Z,0.00
2018-08-21T00:56:33.030Z,0.00
2018-08-21T00:57:33.059Z,0.00
2018-08-21T00:58:33.081Z,0.00
2018-08-21T00:59:33.096Z,0.00
2018-08-21T01:00:33.122Z,0.00
2018-08-21T01:01:33.148Z,0.00
2018-08-21T01:02:33.173Z,0.00
2018-08-21T01:03:33.186Z,0.00
2018-08-21T01:04:33.221Z,0.00
2018-08-21T01:05:33.249Z,0.00
2018-08-21T01:06:33.279Z,0.00
2018-08-21T01:07:33.277Z,0.00
2018-08-21T01:08:33.304Z,0.00
2018-08-21T01:09:33.330Z,0.00
2018-08-21T01:10:33.355Z,0.00
2018-08-21T01:11:33.369Z,0.00
2018-08-21T01:12:33.395Z,0.00
2018-08-21T01:13:33.433Z,0.00
2018-08-21T01:14:33.447Z,0.00
2018-08-21T01:15:33.462Z,0.00
2018-08-21T01:16:33.486Z,0.00
2018-08-21T01:17:33.516Z,0.00
2018-08-21T01:18:33.538Z,0.00
2018-08-21T01:19:33.551Z,0.00
2018-08-21T01:20:33.578Z,0.00
2018-08-21T01:21:33.604Z,0.00
2018-08-21T01:22:33.629Z,0.00
2018-08-21T01:23:33.643Z,0.00
2018-08-21T01:24:33.669Z,0.00
2018-08-21T01:25:33.695Z,0.00
2018-08-21T01:26:33.721Z,0.00
2018-08-21T01:27:33.733Z,0.00
2018-08-21T01:28:33.762Z,0.00
2018-08-21T01:29:33.788Z,0.00
2018-08-21T01:30:33.811Z,0.00
2018-08-21T01:31:33.826Z,0.00
2018-08-21T01:32:33.853Z,0.00
2018-08-21T01:33:33.879Z,0.00
2018-08-21T01:34:33.904Z,0.00
2018-08-21T01:35:33.916Z,0.00
2018-08-21T01:36:33.955Z,0.00
2018-08-21T01:37:33.968Z,0.00
2018-08-21T01:38:33.994Z,0.00
2018-08-21T01:39:34.009Z,0.00
2018-08-21T01:40:34.034Z,0.00
2018-08-21T01:41:34.061Z,0.00
2018-08-21T01:42:34.076Z,0.00
2018-08-21T01:43:34.101Z,0.00
2018-08-21T01:44:34.127Z,0.00
2018-08-21T01:45:34.152Z,0.00
2018-08-21T01:46:34.178Z,0.00
2018-08-21T01:47:34.191Z,0.00
2018-08-21T01:48:34.217Z,0.00
2018-08-21T01:49:34.245Z,0.00
2018-08-21T01:50:34.258Z,0.00
2018-08-21T01:51:34.285Z,0.00
2018-08-21T01:52:34.308Z,0.00
2018-08-21T01:53:34.333Z,0.00
2018-08-21T01:54:34.347Z,0.00
2018-08-21T01:55:34.373Z,0.00
2018-08-21T01:56:34.402Z,0.00
2018-08-21T01:57:34.428Z,0.00
2018-08-21T01:58:34.439Z,0.00
2018-08-21T01:59:34.464Z,0.00
2018-08-21T02:00:34.490Z,0.00
2018-08-21T02:01:34.516Z,0.00
2018-08-21T02:02:34.529Z,0.00
2018-08-21T02:03:34.557Z,0.00
2018-08-21T02:04:34.581Z,0.00
2018-08-21T02:05:34.610Z,0.00
2018-08-21T02:06:34.625Z,0.00
2018-08-21T02:07:34.646Z,0.00
2018-08-21T02:08:34.672Z,0.00
2018-08-21T02:09:34.697Z,0.00
2018-08-21T02:10:34.712Z,0.00
2018-08-21T02:11:34.739Z,0.00
2018-08-21T02:12:34.766Z,0.00
2018-08-21T02:13:34.780Z,0.00
2018-08-21T02:14:34.803Z,0.00
2018-08-21T02:15:34.830Z,0.00
2018-08-21T02:16:34.855Z,0.00
2018-08-21T02:17:34.870Z,0.00
2018-08-21T02:18:34.894Z,0.00
2018-08-21T02:19:34.925Z,0.00
2018-08-21T02:20:34.947Z,0.00
2018-08-21T02:21:34.960Z,0.00
2018-08-21T02:22:34.985Z,0.00
2018-08-21T02:23:35.011Z,0.00
2018-08-21T02:24:35.025Z,0.00
2018-08-21T02:25:35.051Z,0.00
2018-08-21T02:26:35.078Z,0.00
2018-08-21T02:27:35.104Z,0.00
2018-08-21T02:28:35.119Z,0.00
2018-08-21T02:29:35.143Z,0.00
2018-08-21T02:30:35.167Z,0.00
2018-08-21T02:31:35.200Z,0.00
2018-08-21T02:32:35.208Z,0.00
2018-08-21T02:33:35.234Z,0.00
2018-08-21T02:34:35.259Z,0.00
2018-08-21T02:35:35.273Z,0.00
2018-08-21T02:36:35.298Z,0.00
2018-08-21T02:37:35.324Z,0.00
2018-08-21T02:38:35.403Z,0.00
2018-08-21T02:39:35.365Z,0.00
2018-08-21T02:40:35.398Z,0.00
2018-08-21T02:41:35.416Z,0.00
2018-08-21T02:42:35.429Z,0.00
2018-08-21T02:43:35.455Z,0.00
2018-08-21T02:44:35.485Z,0.00
2018-08-21T02:45:35.507Z,0.00
2018-08-21T02:46:35.521Z,0.00
2018-08-21T02:47:35.548Z,0.00
2018-08-21T02:48:35.573Z,0.00
2018-08-21T02:49:35.632Z,0.00
2018-08-21T02:50:35.613Z,0.00
2018-08-21T02:51:35.637Z,0.00
2018-08-21T02:52:35.653Z,0.00
2018-08-21T02:53:35.679Z,0.00
2018-08-21T02:54:35.703Z,0.00
2018-08-21T02:55:35.730Z,0.00
2018-08-21T02:56:35.743Z,0.00
2018-08-21T02:57:35.769Z,0.00
2018-08-21T02:58:35.794Z,0.00
2018-08-21T02:59:35.810Z,0.00
2018-08-21T03:00:35.835Z,0.00
2018-08-21T03:01:35.861Z,0.00
2018-08-21T03:02:35.887Z,0.00
2018-08-21T03:03:35.899Z,0.00
2018-08-21T03:04:35.925Z,0.00
2018-08-21T03:05:35.950Z,0.00
2018-08-21T03:06:35.964Z,0.00
2018-08-21T03:07:35.990Z,0.00
2018-08-21T03:08:36.016Z,0.00
2018-08-21T03:09:36.042Z,0.00
2018-08-21T03:10:36.056Z,0.00
2018-08-21T03:11:36.082Z,0.00
2018-08-21T03:12:36.107Z,0.00
2018-08-21T03:13:36.122Z,0.00
2018-08-21T03:14:36.146Z,0.00
2018-08-21T03:15:36.174Z,0.00
2018-08-21T03:16:36.186Z,0.00
2018-08-21T03:17:36.211Z,0.00
2018-08-21T03:18:36.237Z,0.00
2018-08-21T03:19:36.253Z,0.00
2018-08-21T03:20:36.278Z,0.00
2018-08-21T03:21:36.321Z,0.00
2018-08-21T03:22:36.330Z,0.00
2018-08-21T03:23:36.343Z,0.00
2018-08-21T03:24:36.368Z,0.00
2018-08-21T03:25:36.394Z,0.00
2018-08-21T03:26:36.409Z,0.00
2018-08-21T03:27:36.434Z,0.00
2018-08-21T03:28:36.463Z,0.00
2018-08-21T03:29:36.473Z,0.00
2018-08-21T03:30:36.499Z,0.00
2018-08-21T03:31:36.530Z,0.00
2018-08-21T03:32:36.539Z,0.00
2018-08-21T03:33:36.565Z,0.00
2018-08-21T03:34:36.591Z,0.00
2018-08-21T03:35:36.618Z,0.00
2018-08-21T03:36:36.630Z,0.00
2018-08-21T03:37:36.656Z,0.00
2018-08-21T03:38:36.682Z,0.00
2018-08-21T03:39:36.703Z,0.00
2018-08-21T03:40:36.721Z,0.00
2018-08-21T03:41:36.748Z,0.00
2018-08-21T03:42:36.761Z,0.00
2018-08-21T03:43:36.787Z,0.00
2018-08-21T03:44:36.812Z,0.00
2018-08-21T03:45:36.826Z,0.00
2018-08-21T03:46:36.853Z,0.00
2018-08-21T03:47:36.877Z,0.00
2018-08-21T03:48:36.904Z,0.00
2018-08-21T03:49:36.932Z,0.00
2018-08-21T03:50:36.943Z,0.00
2018-08-21T03:51:36.969Z,0.00
2018-08-21T03:52:36.983Z,0.00
2018-08-21T03:53:37.009Z,0.00
2018-08-21T03:54:37.035Z,0.00
2018-08-21T03:55:37.049Z,0.00
2018-08-21T03:56:37.075Z,0.00
2018-08-21T03:57:37.099Z,0.00
2018-08-21T03:58:37.126Z,0.00
2018-08-21T03:59:37.140Z,5.63
2018-08-21T04:00:37.166Z,5.63
2018-08-21T04:01:37.191Z,5.63
2018-08-21T04:02:37.204Z,5.63
2018-08-21T04:03:37.232Z,5.63
2018-08-21T04:04:37.257Z,5.63
2018-08-21T04:05:37.271Z,5.63
2018-08-21T04:06:37.296Z,5.63
2018-08-21T04:07:37.324Z,11.25
2018-08-21T04:08:37.336Z,11.25
2018-08-21T04:09:37.363Z,11.25
2018-08-21T04:10:37.387Z,11.25
2018-08-21T04:11:37.412Z,11.25
2018-08-21T04:12:37.426Z,16.88
2018-08-21T04:13:37.452Z,16.88
2018-08-21T04:14:37.478Z,16.88
2018-08-21T04:15:37.491Z,16.88
2018-08-21T04:16:37.517Z,22.50
2018-08-21T04:17:37.543Z,22.50
2018-08-21T04:18:37.557Z,22.50
2018-08-21T04:19:37.584Z,28.13
2018-08-21T04:20:37.612Z,28.13
2018-08-21T04:21:37.621Z,33.75
2018-08-21T04:22:37.648Z,39.38
2018-08-21T04:23:37.686Z,39.38
2018-08-21T04:24:37.744Z,45.00
2018-08-21T04:25:37.714Z,45.00
2018-08-21T04:26:37.739Z,50.63
2018-08-21T04:27:37.753Z,50.63
2018-08-21T04:28:37.778Z,56.25
2018-08-21T04:29:37.806Z,56.25
2018-08-21T04:30:37.829Z,61.88
2018-08-21T04:31:37.847Z,61.88
2018-08-21T04:32:37.934Z,67.50
2018-08-21T04:33:37.896Z,73.13
2018-08-21T04:34:37.909Z,73.13
2018-08-21T04:35:37.934Z,78.75
2018-08-21T04:36:37.961Z,84.38
2018-08-21T04:37:37.975Z,90.00
2018-08-21T04:38:38.000Z,90.00
2018-08-21T04:39:38.027Z,90.00
2018-08-21T04:40:38.039Z,95.63
2018-08-21T04:41:38.065Z,95.63
2018-08-21T04:42:38.104Z,101.25
2018-08-21T04:43:38.106Z,106.88
2018-08-21T04:44:38.131Z,106.88
2018-08-21T04:45:38.157Z,112.50
2018-08-21T04:46:38.183Z,112.50
2018-08-21T04:47:38.195Z,118.13
2018-08-21T04:48:38.221Z,123.75
2018-08-21T04:49:38.261Z,123.75
2018-08-21T04:50:38.262Z,129.38
2018-08-21T04:51:38.289Z,135.00
2018-08-21T04:52:38.314Z,140.63
2018-08-21T04:53:38.326Z,146.25
2018-08-21T04:54:38.352Z,157.50
2018-08-21T04:55:38.378Z,151.88
2018-08-21T04:56:38.393Z,157.50
2018-08-21T04:57:38.419Z,157.50
2018-08-21T04:58:38.540Z,163.13
2018-08-21T04:59:38.458Z,168.75
2018-08-21T05:00:38.484Z,174.38
2018-08-21T05:01:38.509Z,174.38
2018-08-21T05:02:38.535Z,180.00
2018-08-21T05:03:38.548Z,185.63
2018-08-21T05:04:38.579Z,191.25
2018-08-21T05:05:38.628Z,202.50
2018-08-21T05:06:38.614Z,202.50
2018-08-21T05:07:38.640Z,208.13
2018-08-21T05:08:38.665Z,208.13
2018-08-21T05:09:38.680Z,208.13
2018-08-21T05:10:38.707Z,213.75
2018-08-21T05:11:38.733Z,213.75
2018-08-21T05:12:38.824Z,219.38
2018-08-21T05:13:38.783Z,219.38
2018-08-21T05:14:38.799Z,225.00
2018-08-21T05:15:38.822Z,230.63
2018-08-21T05:16:38.839Z,236.25
2018-08-21T05:17:38.861Z,247.50
2018-08-21T05:18:38.888Z,247.50
2018-08-21T05:19:38.903Z,241.88
2018-08-21T05:20:38.926Z,236.25
2018-08-21T05:21:38.952Z,230.63
2018-08-21T05:22:38.966Z,236.25
2018-08-21T05:23:38.993Z,241.88
2018-08-21T05:24:39.019Z,247.50
2018-08-21T05:25:39.032Z,247.50
2018-08-21T05:26:39.070Z,247.50
2018-08-21T05:27:39.083Z,241.88
2018-08-21T05:28:39.161Z,241.88
2018-08-21T05:29:39.124Z,241.88
2018-08-21T05:30:39.148Z,241.88
2018-08-21T05:31:39.175Z,241.88
2018-08-21T05:32:39.188Z,241.88
2018-08-21T05:33:39.226Z,247.50
2018-08-21T05:34:39.240Z,247.50
2018-08-21T05:35:39.255Z,247.50
2018-08-21T05:36:39.279Z,253.13
2018-08-21T05:37:39.306Z,253.13
2018-08-21T05:38:39.332Z,258.75
2018-08-21T05:39:39.344Z,258.75
2018-08-21T05:40:39.372Z,264.38
2018-08-21T05:41:39.400Z,264.38
2018-08-21T05:42:39.410Z,264.38
2018-08-21T05:43:39.438Z,270.00
2018-08-21T05:44:39.462Z,270.00
2018-08-21T05:45:39.475Z,275.63
2018-08-21T05:46:39.501Z,275.63
2018-08-21T05:47:39.526Z,281.25
2018-08-21T05:48:39.566Z,281.25
2018-08-21T05:49:39.567Z,281.25
2018-08-21T05:50:39.593Z,286.88
2018-08-21T05:51:39.619Z,286.88
2018-08-21T05:52:39.631Z,292.50
2018-08-21T05:53:39.670Z,292.50
2018-08-21T05:54:39.698Z,298.13
2018-08-21T05:55:39.775Z,298.13
2018-08-21T05:56:39.723Z,303.75
2018-08-21T05:57:39.749Z,303.75
2018-08-21T05:58:39.763Z,309.38
2018-08-21T05:59:39.788Z,309.38
2018-08-21T06:00:39.813Z,309.38
2018-08-21T06:01:39.840Z,320.63
2018-08-21T06:02:39.853Z,326.25
2018-08-21T06:03:39.882Z,337.50
2018-08-21T06:04:39.908Z,376.88
2018-08-21T06:05:39.918Z,393.75
2018-08-21T06:06:39.944Z,360.00
2018-08-21T06:07:39.970Z,337.50
2018-08-21T06:08:39.984Z,360.00
2018-08-21T06:09:40.010Z,371.25
2018-08-21T06:10:40.036Z,360.00
2018-08-21T06:11:40.062Z,348.75
2018-08-21T06:12:40.076Z,348.75
2018-08-21T06:13:40.101Z,354.38
2018-08-21T06:14:40.127Z,360.00
2018-08-21T06:15:40.141Z,360.00
2018-08-21T06:16:40.171Z,365.63
2018-08-21T06:17:40.193Z,365.63
2018-08-21T06:18:40.206Z,382.50
2018-08-21T06:19:40.235Z,405.00
2018-08-21T06:20:40.259Z,421.88
2018-08-21T06:21:40.273Z,438.75
2018-08-21T06:22:40.299Z,455.63
2018-08-21T06:23:40.323Z,421.88
2018-08-21T06:24:40.353Z,427.50
2018-08-21T06:25:40.363Z,461.25
2018-08-21T06:26:40.388Z,579.38
2018-08-21T06:27:40.414Z,905.63
2018-08-21T06:28:40.429Z,1051.88
2018-08-21T06:29:40.454Z,1080.00
2018-08-21T06:30:40.480Z,1096.88
2018-08-21T06:31:40.508Z,1130.63
2018-08-21T06:32:40.520Z,1136.25
2018-08-21T06:33:40.551Z,1164.38
2018-08-21T06:34:40.572Z,1170.00
2018-08-21T06:35:40.596Z,1175.63
2018-08-21T06:36:40.612Z,1192.50
2018-08-21T06:37:40.637Z,1198.13
2018-08-21T06:38:40.682Z,1181.25
2018-08-21T06:39:40.731Z,1192.50
2018-08-21T06:40:40.700Z,1215.00
2018-08-21T06:41:40.727Z,1226.25
2018-08-21T06:42:40.753Z,1186.88
2018-08-21T06:43:40.778Z,1141.88
2018-08-21T06:44:40.798Z,1153.13
2018-08-21T06:45:40.820Z,1265.63
2018-08-21T06:46:40.920Z,1265.63
2018-08-21T06:47:40.870Z,1248.75
2018-08-21T06:48:40.896Z,1226.25
2018-08-21T06:49:40.924Z,1226.25
2018-08-21T06:50:40.936Z,1231.88
2018-08-21T06:51:40.962Z,1231.88
2018-08-21T06:52:40.999Z,1220.63
2018-08-21T06:53:41.018Z,1237.50
2018-08-21T06:54:41.040Z,1254.38
2018-08-21T06:55:41.064Z,1260.00
2018-08-21T06:56:41.090Z,1260.00
2018-08-21T06:57:41.116Z,1293.75
2018-08-21T06:58:41.155Z,1327.50
2018-08-21T06:59:41.159Z,1316.25
2018-08-21T07:00:41.184Z,1355.63
2018-08-21T07:01:41.208Z,1372.50
2018-08-21T07:02:41.235Z,1389.38
2018-08-21T07:03:41.260Z,1378.13
2018-08-21T07:04:41.287Z,1395.00
2018-08-21T07:05:41.312Z,1378.13
2018-08-21T07:06:41.338Z,1428.75
2018-08-21T07:07:41.365Z,1445.63
2018-08-21T07:08:41.389Z,1456.88
2018-08-21T07:09:41.416Z,1468.13
2018-08-21T07:10:41.442Z,1456.88
2018-08-21T07:11:41.467Z,1501.88
2018-08-21T07:12:41.493Z,1518.75
2018-08-21T07:13:41.519Z,1535.63
2018-08-21T07:14:41.547Z,1535.63
2018-08-21T07:15:41.571Z,1501.88
2018-08-21T07:16:41.598Z,1501.88
2018-08-21T07:17:41.623Z,1541.25
2018-08-21T07:18:41.650Z,1569.38
2018-08-21T07:19:41.676Z,1580.63
2018-08-21T07:20:41.708Z,1563.75
2018-08-21T07:21:41.727Z,1580.63
2018-08-21T07:22:41.753Z,1552.50
2018-08-21T07:23:41.779Z,1597.50
2018-08-21T07:24:41.805Z,1608.75
2018-08-21T07:25:41.831Z,1631.25
2018-08-21T07:26:41.857Z,1653.75
2018-08-21T07:27:41.883Z,1715.63
2018-08-21T07:28:41.909Z,1777.50
2018-08-21T07:29:41.947Z,1732.50
2018-08-21T07:30:41.973Z,1760.63
2018-08-21T07:31:42.000Z,1800.00
2018-08-21T07:32:42.026Z,1788.75
2018-08-21T07:33:42.050Z,1788.75
2018-08-21T07:34:42.076Z,1805.63
2018-08-21T07:35:42.175Z,1811.25
2018-08-21T07:36:42.129Z,1822.50
2018-08-21T07:37:42.156Z,1828.13
2018-08-21T07:38:42.194Z,1822.50
2018-08-21T07:39:42.220Z,1828.13
2018-08-21T07:40:42.246Z,1839.38
2018-08-21T07:41:42.274Z,1890.00
2018-08-21T07:42:42.298Z,1895.63
2018-08-21T07:43:42.324Z,1940.63
2018-08-21T07:44:42.350Z,1957.50
2018-08-21T07:45:42.387Z,1940.63
2018-08-21T07:46:42.413Z,1996.88
2018-08-21T07:47:42.477Z,1996.88
2018-08-21T07:48:42.467Z,2002.50
2018-08-21T07:49:42.492Z,2008.13
2018-08-21T07:50:42.530Z,2013.75
2018-08-21T07:51:42.556Z,2019.38
2018-08-21T07:52:42.582Z,2013.75
2018-08-21T07:53:42.608Z,2041.88
2018-08-21T07:54:42.646Z,2002.50
2018-08-21T07:55:42.673Z,2019.38
2018-08-21T07:56:42.711Z,2047.50
2018-08-21T07:57:42.724Z,2036.25
2018-08-21T07:58:42.766Z,2070.00
2018-08-21T07:59:42.789Z,2092.50
2018-08-21T08:00:42.816Z,2126.25
2018-08-21T08:01:42.841Z,2008.13
2018-08-21T08:02:42.878Z,2019.38
2018-08-21T08:03:42.904Z,2081.25
2018-08-21T08:04:42.943Z,2126.25
2018-08-21T08:05:42.957Z,1991.25
2018-08-21T08:06:42.995Z,1333.13
2018-08-21T08:07:43.022Z,669.38
2018-08-21T08:08:43.048Z,601.88
2018-08-21T08:09:43.076Z,613.13
2018-08-21T08:10:43.111Z,635.63
2018-08-21T08:11:43.138Z,646.88
2018-08-21T08:12:43.163Z,641.25
2018-08-21T08:13:43.203Z,658.13
2018-08-21T08:14:43.228Z,714.38
2018-08-21T08:15:43.254Z,725.63
2018-08-21T08:16:43.280Z,669.38
2018-08-21T08:17:43.306Z,635.63
2018-08-21T08:18:43.333Z,618.75
2018-08-21T08:19:43.370Z,618.75
2018-08-21T08:20:43.396Z,630.00
2018-08-21T08:21:43.424Z,708.75
2018-08-21T08:22:43.449Z,759.38
2018-08-21T08:23:43.475Z,748.13
2018-08-21T08:24:43.499Z,742.50
2018-08-21T08:25:43.527Z,697.50
2018-08-21T08:26:43.551Z,742.50
2018-08-21T08:27:43.578Z,832.50
2018-08-21T08:28:43.603Z,961.88
2018-08-21T08:29:43.630Z,1006.88
2018-08-21T08:30:43.655Z,967.50
2018-08-21T08:31:43.680Z,928.13
2018-08-21T08:32:43.721Z,956.25
2018-08-21T08:33:43.733Z,860.63
2018-08-21T08:34:43.759Z,832.50
2018-08-21T08:35:43.788Z,871.88
2018-08-21T08:36:43.812Z,900.00
2018-08-21T08:37:43.837Z,866.25
2018-08-21T08:38:43.863Z,787.50
2018-08-21T08:39:43.888Z,770.63
2018-08-21T08:40:43.917Z,787.50
2018-08-21T08:41:44.012Z,815.63
2018-08-21T08:42:43.966Z,849.38
2018-08-21T08:43:43.992Z,770.63
2018-08-21T08:44:44.020Z,680.63
2018-08-21T08:45:44.043Z,641.25
2018-08-21T08:46:44.071Z,652.50
2018-08-21T08:47:44.182Z,669.38
2018-08-21T08:48:44.122Z,691.88
2018-08-21T08:49:44.160Z,703.13
2018-08-21T08:50:44.175Z,753.75
2018-08-21T08:51:44.201Z,753.75
2018-08-21T08:52:44.224Z,714.38
2018-08-21T08:53:44.264Z,635.63
2018-08-21T08:54:44.277Z,607.50
2018-08-21T08:55:44.303Z,596.25
2018-08-21T08:56:44.329Z,590.63
2018-08-21T08:57:44.356Z,590.63
2018-08-21T08:58:44.369Z,590.63
2018-08-21T08:59:44.395Z,596.25
2018-08-21T09:00:44.422Z,613.13
2018-08-21T09:01:44.459Z,618.75
2018-08-21T09:02:44.473Z,652.50
2018-08-21T09:03:44.500Z,669.38
2018-08-21T09:04:44.539Z,652.50
2018-08-21T09:05:44.550Z,624.38
2018-08-21T09:06:44.577Z,613.13
2018-08-21T09:07:44.603Z,613.13
2018-08-21T09:08:44.628Z,607.50
2018-08-21T09:09:44.655Z,613.13
2018-08-21T09:10:44.681Z,663.75
2018-08-21T09:11:44.695Z,697.50
2018-08-21T09:12:44.719Z,765.00
2018-08-21T09:13:44.745Z,883.13
2018-08-21T09:14:44.790Z,945.00
2018-08-21T09:15:44.797Z,905.63
2018-08-21T09:16:44.823Z,866.25
2018-08-21T09:17:44.849Z,905.63
2018-08-21T09:18:44.875Z,855.00
2018-08-21T09:19:44.904Z,765.00
2018-08-21T09:20:44.930Z,635.63
2018-08-21T09:21:44.953Z,669.38
2018-08-21T09:22:44.980Z,753.75
2018-08-21T09:23:45.006Z,798.75
2018-08-21T09:24:45.031Z,770.63
2018-08-21T09:25:45.046Z,691.88
2018-08-21T09:26:45.071Z,630.00
2018-08-21T09:27:45.097Z,652.50
2018-08-21T09:28:45.122Z,675.00
2018-08-21T09:29:45.149Z,725.63
2018-08-21T09:30:45.176Z,731.25
2018-08-21T09:31:45.200Z,731.25
2018-08-21T09:32:45.225Z,691.88
2018-08-21T09:33:45.252Z,703.13
2018-08-21T09:34:45.278Z,731.25
2018-08-21T09:35:45.306Z,725.63
2018-08-21T09:36:45.329Z,697.50
2018-08-21T09:37:45.357Z,646.88
2018-08-21T09:38:45.382Z,669.38
2018-08-21T09:39:45.408Z,680.63
2018-08-21T09:40:45.422Z,686.25
2018-08-21T09:41:45.447Z,669.38
2018-08-21T09:42:45.473Z,652.50
2018-08-21T09:43:45.499Z,646.88
2018-08-21T09:44:45.544Z,646.88
2018-08-21T09:45:45.562Z,669.38
2018-08-21T09:46:45.577Z,708.75
2018-08-21T09:47:45.602Z,748.13
2018-08-21T09:48:45.627Z,781.88
2018-08-21T09:49:45.656Z,855.00
2018-08-21T09:50:45.679Z,990.00
2018-08-21T09:51:45.783Z,1080.00
2018-08-21T09:52:45.731Z,1113.75
2018-08-21T09:53:45.758Z,1018.13
2018-08-21T09:54:45.783Z,1051.88
2018-08-21T09:55:45.816Z,1113.75
2018-08-21T09:56:45.835Z,1147.50
2018-08-21T09:57:45.862Z,1125.00
2018-08-21T09:58:45.887Z,1119.38
2018-08-21T09:59:45.913Z,1175.63
2018-08-21T10:00:45.941Z,1248.75
2018-08-21T10:01:45.966Z,1237.50
2018-08-21T10:02:45.992Z,1147.50
2018-08-21T10:03:46.018Z,1051.88
2018-08-21T10:04:46.045Z,905.63
2018-08-21T10:05:46.070Z,843.75
2018-08-21T10:06:46.135Z,804.38
2018-08-21T10:07:46.120Z,793.13
2018-08-21T10:08:46.149Z,770.63
2018-08-21T10:09:46.172Z,759.38
2018-08-21T10:10:46.198Z,838.13
2018-08-21T10:11:46.227Z,1535.63
2018-08-21T10:12:46.250Z,815.63
2018-08-21T10:13:46.278Z,2638.13
2018-08-21T10:14:46.302Z,1828.13
2018-08-21T10:15:46.330Z,2053.13
2018-08-21T10:16:46.354Z,1507.50
2018-08-21T10:17:46.381Z,1755.00
2018-08-21T10:18:46.406Z,2261.25
2018-08-21T10:19:46.432Z,1153.13
2018-08-21T10:20:46.460Z,1231.88
2018-08-21T10:21:46.497Z,1698.75
2018-08-21T10:22:46.524Z,1816.88
2018-08-21T10:23:46.550Z,2604.38
2018-08-21T10:24:46.575Z,2880.00
2018-08-21T10:25:46.605Z,2306.25
2018-08-21T10:26:46.639Z,1125.00
2018-08-21T10:27:46.664Z,1147.50
2018-08-21T10:28:46.691Z,1164.38
2018-08-21T10:29:46.721Z,1040.63
2018-08-21T10:30:46.756Z,1743.75
2018-08-21T10:31:46.785Z,2491.88
2018-08-21T10:32:46.808Z,990.00
2018-08-21T10:33:46.845Z,2508.75
2018-08-21T10:34:46.917Z,928.13
2018-08-21T10:35:46.901Z,1687.50
2018-08-21T10:36:46.925Z,984.38
2018-08-21T10:37:46.961Z,883.13
2018-08-21T10:38:46.991Z,3915.00
2018-08-21T10:39:47.014Z,4134.38
2018-08-21T10:40:47.052Z,4196.25
2018-08-21T10:41:47.077Z,4201.88
2018-08-21T10:42:47.104Z,4100.63
2018-08-21T10:43:47.143Z,3993.75
2018-08-21T10:44:47.168Z,4179.38
2018-08-21T10:45:47.194Z,4134.38
2018-08-21T10:46:47.232Z,4263.75
2018-08-21T10:47:47.258Z,4443.75
2018-08-21T10:48:47.298Z,4201.88
2018-08-21T10:49:47.325Z,3870.00
2018-08-21T10:50:47.373Z,3763.13
2018-08-21T10:51:47.444Z,3476.25
2018-08-21T10:52:47.428Z,3369.38
2018-08-21T10:53:47.453Z,3358.13
2018-08-21T10:54:47.489Z,3538.13
2018-08-21T10:55:47.533Z,3515.63
2018-08-21T10:56:47.555Z,3453.75
2018-08-21T10:57:47.605Z,3397.50
2018-08-21T10:58:47.632Z,3391.88
2018-08-21T10:59:47.658Z,3515.63
2018-08-21T11:00:47.696Z,3926.25
2018-08-21T11:01:47.734Z,3785.63
2018-08-21T11:02:47.772Z,3375.00
2018-08-21T11:03:47.799Z,3251.25
2018-08-21T11:04:47.838Z,3650.63
2018-08-21T11:05:47.876Z,4573.13
2018-08-21T11:06:47.914Z,4831.88
2018-08-21T11:07:47.955Z,4905.00
2018-08-21T11:08:47.978Z,5011.88
2018-08-21T11:09:48.017Z,4837.50
2018-08-21T11:10:48.056Z,4156.88
2018-08-21T11:11:48.094Z,973.13
2018-08-21T11:12:48.133Z,866.25
2018-08-21T11:13:48.171Z,3031.88
2018-08-21T11:14:48.198Z,4803.75
2018-08-21T11:15:48.237Z,4955.63
2018-08-21T11:16:48.275Z,5394.38
2018-08-21T11:17:48.311Z,5276.25
2018-08-21T11:18:48.351Z,5321.25
2018-08-21T11:19:48.382Z,5872.50
2018-08-21T11:20:48.415Z,6052.50
2018-08-21T11:21:48.457Z,6401.25
2018-08-21T11:22:48.492Z,6682.50
2018-08-21T11:23:48.530Z,6457.50
2018-08-21T11:24:48.556Z,6457.50
2018-08-21T11:25:48.594Z,6648.75
2018-08-21T11:26:48.633Z,6283.13
2018-08-21T11:27:48.686Z,5608.13
2018-08-21T11:28:48.709Z,5253.75
2018-08-21T11:29:48.802Z,5034.38
2018-08-21T11:30:48.786Z,928.13
2018-08-21T11:31:48.813Z,950.63
2018-08-21T11:32:48.853Z,4612.50
2018-08-21T11:33:48.889Z,4893.75
2018-08-21T11:34:48.940Z,5383.13
2018-08-21T11:35:48.969Z,5445.00
2018-08-21T11:36:48.995Z,5518.13
2018-08-21T11:37:49.074Z,5765.63
2018-08-21T11:38:49.070Z,5619.38
2018-08-21T11:39:49.107Z,5557.50
2018-08-21T11:40:49.147Z,5568.75
2018-08-21T11:41:49.185Z,5720.63
2018-08-21T11:42:49.210Z,5428.13
2018-08-21T11:43:49.249Z,5163.75
2018-08-21T11:44:49.288Z,5321.25
2018-08-21T11:45:49.326Z,5473.13
2018-08-21T11:46:49.367Z,5630.63
2018-08-21T11:47:49.403Z,5883.75
2018-08-21T11:48:49.441Z,5754.38
2018-08-21T11:49:49.471Z,5709.38
2018-08-21T11:50:49.506Z,5833.13
2018-08-21T11:51:49.543Z,5765.63
2018-08-21T11:52:49.583Z,5698.13
2018-08-21T11:53:49.621Z,5557.50
2018-08-21T11:54:49.660Z,1631.25
2018-08-21T11:55:49.697Z,2356.88
2018-08-21T11:56:49.738Z,2176.88
2018-08-21T11:57:49.775Z,956.25
2018-08-21T11:58:49.813Z,956.25
2018-08-21T11:59:49.852Z,1451.25
2018-08-21T12:00:49.891Z,5265.00
2018-08-21T12:01:49.929Z,4640.63
2018-08-21T12:02:49.954Z,5675.63
2018-08-21T12:03:49.994Z,5315.63
2018-08-21T12:04:50.031Z,5163.75
2018-08-21T12:05:50.075Z,5641.88
2018-08-21T12:06:50.109Z,5844.38
2018-08-21T12:07:50.148Z,5568.75
2018-08-21T12:08:50.196Z,5478.75
2018-08-21T12:09:50.210Z,5535.00
2018-08-21T12:10:50.250Z,5793.75
2018-08-21T12:11:50.287Z,5698.13
2018-08-21T12:12:50.327Z,5664.38
2018-08-21T12:13:50.353Z,5664.38
2018-08-21T12:14:50.481Z,5343.75
2018-08-21T12:15:50.430Z,5540.63
2018-08-21T12:16:50.469Z,5540.63
2018-08-21T12:17:50.507Z,5169.38
2018-08-21T12:18:50.547Z,4708.13
2018-08-21T12:19:50.583Z,5186.25
2018-08-21T12:20:50.610Z,5141.25
2018-08-21T12:21:50.651Z,4792.50
2018-08-21T12:22:50.686Z,4865.63
2018-08-21T12:23:50.742Z,5045.63
2018-08-21T12:24:50.763Z,4725.00
2018-08-21T12:25:50.800Z,4680.00
2018-08-21T12:26:50.840Z,4584.38
2018-08-21T12:27:50.878Z,4320.00
2018-08-21T12:28:50.916Z,1620.00
2018-08-21T12:29:50.963Z,3830.63
2018-08-21T12:30:50.993Z,1704.38
2018-08-21T12:31:51.033Z,3453.75
2018-08-21T12:32:51.074Z,1175.63
2018-08-21T12:33:51.108Z,2334.38
2018-08-21T12:34:51.148Z,2154.38
2018-08-21T12:35:51.184Z,4798.13
2018-08-21T12:36:51.224Z,4505.63
2018-08-21T12:37:51.262Z,4775.63